Borisov, Belarus
Current Conditions -  °F | °C
As of 7:30 PM on Friday 21 Nov 2014 (Local Time) from UMMS Reporting Station
Clear Clear  
Wind Chill: 27°   Ceiling: Unl
Heat Index: 27°   Visibility: 6mi
Dew Point: 23°   Wind: 0mph
Humidity: 86%   Direction: NA
Pressure: 30.36"   Gusts: NA
Location:  54.22°N, 28.51°E
Report Text: UMMS 211730Z 00000MPS CAVOK M03/M05 Q1028 R13/810350NOSIG
Loading
Personal Weather Stations






























Interactive Weather Map New forecast layout! Learn more

10-Day Weather Forecast

Advertisements
Track Severe Weather on mobile